Novomar — 5BCT2 — position and weather

sailwx.info

Track history (hours):
 
Tides and Currents Weather Stations Pressure Air Temp Water Temp Dewpoint Dewpoint Depression Visibility Wind Speed Wind Dir Waves Ship Positions

Novomar

Last reported at 2015-Mar-28 18:33 UTC. Time now 2015-Mar-28 18:52 UTC.
Position N 54°02' E 004°55'.

Length 89 m; draft 3.8 m.

Type: Cargo ship. MMSI: 210974000.

Date/timePositionNaut miles runAvg speedWind from/ knotsBaromVisibWave heightAir tempDewpointWater temp
2015-Mar-28 18:33N 54°02' E 004°55'154 9.0
2015-Mar-28 01:28N 54°40' E 000°40'1010.8
2015-Mar-28 00:33N 54°42' E 000°23'1111.0
2015-Mar-27 23:33N 54°43' E 000°04'1111.3
2015-Mar-27 22:33N 54°45' W 000°15'1111.5
2015-Mar-27 21:33N 54°46' W 000°35'1111.4
2015-Mar-27 20:33N 54°48' W 000°54'1111.2
2015-Mar-27 19:33N 54°49' W 001°14'3 1.6
2015-Mar-27 17:19N 54°50' W 001°20'0 0.0
2015-Mar-27 16:31N 54°50' W 001°20'0 0.0
2015-Mar-27 15:19N 54°50' W 001°20'0 0.0
2015-Mar-27 14:22N 54°50' W 001°20'0 0.0
2015-Mar-27 13:10N 54°50' W 001°20'0 0.0
2015-Mar-27 12:10N 54°50' W 001°20'0 0.0
2015-Mar-27 10:13N 54°50' W 001°20'0 0.0
2015-Mar-27 09:25N 54°50' W 001°20'0 0.0
2015-Mar-27 08:28N 54°50' W 001°20'0 0.0
2015-Mar-27 07:31N 54°50' W 001°20'0 0.0
2015-Mar-26 14:31N 54°50' W 001°20'0 0.0
2015-Mar-26 13:31N 54°50' W 001°20'0 0.0
2015-Mar-26 12:31N 54°50' W 001°20'0 0.0
2015-Mar-26 11:31N 54°50' W 001°20'0 0.0
2015-Mar-26 10:22N 54°50' W 001°20'0 0.0
2015-Mar-26 09:19N 54°50' W 001°20'0 0.0
2015-Mar-26 08:25N 54°50' W 001°20'0 0.0
2015-Mar-26 07:25N 54°50' W 001°20'0 0.0
2015-Mar-25 23:28N 54°50' W 001°20'1 0.2
2015-Mar-25 17:32N 54°51' W 001°18'13 6.3
2015-Mar-25 15:33N 54°55' W 000°57'33110.3
2015-Mar-24 07:31N 57°09' E 008°05'9 9.5
2015-Mar-24 06:33N 57°14' E 008°19'10 9.5
2015-Mar-24 05:30N 57°19' E 008°35'9 9.5
2015-Mar-24 04:33N 57°23' E 008°50'39 9.2
2015-Mar-24 00:22N 57°38' E 009°56'7 8.9
2015-Mar-23 23:33N 57°41' E 010°09'9 9.3
2015-Mar-23 22:33N 57°45' E 010°25'12 8.3
2015-Mar-23 21:10N 57°48' E 010°46'6 9.2
2015-Mar-23 20:33N 57°44' E 010°55'10 9.9
2015-Mar-23 19:34N 57°37' E 011°08'10 9.7
2015-Mar-23 18:34N 57°31' E 011°21'10 9.7
2015-Mar-23 17:34N 57°22' E 011°30'1010.4
2015-Mar-23 16:33N 57°13' E 011°36'1110.8
2015-Mar-23 15:34N 57°02' E 011°43'1110.7
2015-Mar-23 14:34N 56°52' E 011°50'1110.2
2015-Mar-23 13:32N 56°43' E 011°56'1010.1
2015-Mar-23 12:34N 56°33' E 012°01'3110.1
2015-Mar-23 09:32N 56°08' E 012°32'1010.4
2015-Mar-23 08:34N 55°59' E 012°42'10 9.8
2015-Mar-23 07:34N 55°50' E 012°44'1010.0
2015-Mar-23 06:34N 55°40' E 012°42'10 9.8
2015-Mar-23 05:34N 55°30' E 012°42'1010.2
2015-Mar-23 04:34N 55°20' E 012°41'9 9.3
2015-Mar-23 03:33N 55°16' E 012°56'10 9.6
2015-Mar-23 02:33N 55°15' E 013°13'19 9.6
2015-Mar-23 00:33N 55°14' E 013°46'10 9.8
2015-Mar-22 23:34N 55°13' E 014°03'9 9.1
2015-Mar-22 22:33N 55°16' E 014°19'10 9.7
2015-Mar-22 21:33N 55°23' E 014°31'10 9.7
2015-Mar-22 20:33N 55°29' E 014°43'10 9.7
2015-Mar-22 19:31N 55°34' E 014°58'9 9.6
2015-Mar-22 18:34N 55°39' E 015°12'110 9.0
2015-Mar-22 06:15N 57°03' E 017°22'710.0
2015-Mar-22 05:33N 57°09' E 017°27'12 9.8
2015-Mar-22 04:20N 57°20' E 017°35'  
Track history (hours):
 
Tides and Currents Weather Stations Pressure Air Temp Water Temp Dewpoint Dewpoint Depression Visibility Wind Speed Wind Dir Waves Ship Positions

Novomar

Last reported at 2015-Mar-28 18:33 UTC. Time now 2015-Mar-28 18:52 UTC.
Position N 54°02' E 004°55'.

Length 89 m; draft 3.8 m.

Type: Cargo ship. MMSI: 210974000.

Date/timePositionNaut miles runAvg speedWind from/ knotsBaromVisibWave heightAir tempDewpointWater temp
2015-Mar-28 18:33N 54°02' E 004°55'154 9.0
2015-Mar-28 01:28N 54°40' E 000°40'1010.8
2015-Mar-28 00:33N 54°42' E 000°23'1111.0
2015-Mar-27 23:33N 54°43' E 000°04'1111.3
2015-Mar-27 22:33N 54°45' W 000°15'1111.5
2015-Mar-27 21:33N 54°46' W 000°35'1111.4
2015-Mar-27 20:33N 54°48' W 000°54'1111.2
2015-Mar-27 19:33N 54°49' W 001°14'3 1.6
2015-Mar-27 17:19N 54°50' W 001°20'0 0.0
2015-Mar-27 16:31N 54°50' W 001°20'0 0.0
2015-Mar-27 15:19N 54°50' W 001°20'0 0.0
2015-Mar-27 14:22N 54°50' W 001°20'0 0.0
2015-Mar-27 13:10N 54°50' W 001°20'0 0.0
2015-Mar-27 12:10N 54°50' W 001°20'0 0.0
2015-Mar-27 10:13N 54°50' W 001°20'0 0.0
2015-Mar-27 09:25N 54°50' W 001°20'0 0.0
2015-Mar-27 08:28N 54°50' W 001°20'0 0.0
2015-Mar-27 07:31N 54°50' W 001°20'0 0.0
2015-Mar-26 14:31N 54°50' W 001°20'0 0.0
2015-Mar-26 13:31N 54°50' W 001°20'0 0.0
2015-Mar-26 12:31N 54°50' W 001°20'0 0.0
2015-Mar-26 11:31N 54°50' W 001°20'0 0.0
2015-Mar-26 10:22N 54°50' W 001°20'0 0.0
2015-Mar-26 09:19N 54°50' W 001°20'0 0.0
2015-Mar-26 08:25N 54°50' W 001°20'0 0.0
2015-Mar-26 07:25N 54°50' W 001°20'0 0.0
2015-Mar-25 23:28N 54°50' W 001°20'1 0.2
2015-Mar-25 17:32N 54°51' W 001°18'13 6.3
2015-Mar-25 15:33N 54°55' W 000°57'33110.3
2015-Mar-24 07:31N 57°09' E 008°05'9 9.5
2015-Mar-24 06:33N 57°14' E 008°19'10 9.5
2015-Mar-24 05:30N 57°19' E 008°35'9 9.5
2015-Mar-24 04:33N 57°23' E 008°50'39 9.2
2015-Mar-24 00:22N 57°38' E 009°56'7 8.9
2015-Mar-23 23:33N 57°41' E 010°09'9 9.3
2015-Mar-23 22:33N 57°45' E 010°25'12 8.3
2015-Mar-23 21:10N 57°48' E 010°46'6 9.2
2015-Mar-23 20:33N 57°44' E 010°55'10 9.9
2015-Mar-23 19:34N 57°37' E 011°08'10 9.7
2015-Mar-23 18:34N 57°31' E 011°21'10 9.7
2015-Mar-23 17:34N 57°22' E 011°30'1010.4
2015-Mar-23 16:33N 57°13' E 011°36'1110.8
2015-Mar-23 15:34N 57°02' E 011°43'1110.7
2015-Mar-23 14:34N 56°52' E 011°50'1110.2
2015-Mar-23 13:32N 56°43' E 011°56'1010.1
2015-Mar-23 12:34N 56°33' E 012°01'3110.1
2015-Mar-23 09:32N 56°08' E 012°32'1010.4
2015-Mar-23 08:34N 55°59' E 012°42'10 9.8
2015-Mar-23 07:34N 55°50' E 012°44'1010.0
2015-Mar-23 06:34N 55°40' E 012°42'10 9.8
2015-Mar-23 05:34N 55°30' E 012°42'1010.2
2015-Mar-23 04:34N 55°20' E 012°41'9 9.3
2015-Mar-23 03:33N 55°16' E 012°56'10 9.6
2015-Mar-23 02:33N 55°15' E 013°13'19 9.6
2015-Mar-23 00:33N 55°14' E 013°46'10 9.8
2015-Mar-22 23:34N 55°13' E 014°03'9 9.1
2015-Mar-22 22:33N 55°16' E 014°19'10 9.7
2015-Mar-22 21:33N 55°23' E 014°31'10 9.7
2015-Mar-22 20:33N 55°29' E 014°43'10 9.7
2015-Mar-22 19:31N 55°34' E 014°58'9 9.6
2015-Mar-22 18:34N 55°39' E 015°12'110 9.0
2015-Mar-22 06:15N 57°03' E 017°22'710.0
2015-Mar-22 05:33N 57°09' E 017°27'12 9.8
2015-Mar-22 04:20N 57°20' E 017°35'  

Dump ship's entire track history